createdAt,value
2019-05-29T00:00:02.889Z,9.15
2019-05-29T00:02:31.373Z,9.12
2019-05-29T00:04:59.874Z,9.15
2019-05-29T00:07:28.324Z,8.96
2019-05-29T00:09:56.778Z,8.93
2019-05-29T00:12:25.209Z,8.81
2019-05-29T00:14:53.724Z,8.75
2019-05-29T00:17:22.201Z,8.69
2019-05-29T00:19:50.628Z,8.66
2019-05-29T00:22:19.078Z,8.57
2019-05-29T00:24:47.567Z,8.58
2019-05-29T00:27:16.030Z,8.49
2019-05-29T00:29:44.446Z,8.45
2019-05-29T00:32:13.511Z,8.38
2019-05-29T00:34:43.356Z,8.27
2019-05-29T00:37:12.507Z,8.21
2019-05-29T00:39:41.261Z,8.20
2019-05-29T00:42:11.002Z,8.22
2019-05-29T00:44:40.378Z,8.21
2019-05-29T00:47:11.567Z,8.10
2019-05-29T00:49:40.083Z,8.12
2019-05-29T00:54:57.526Z,8.13
2019-05-29T00:57:25.926Z,8.04
2019-05-29T00:59:57.333Z,8.22
2019-05-29T01:02:25.763Z,7.97
2019-05-29T01:04:54.178Z,7.85
2019-05-29T01:07:22.616Z,8.02
2019-05-29T01:09:51.034Z,7.99
2019-05-29T01:12:19.473Z,8.04
2019-05-29T01:14:50.566Z,7.91
2019-05-29T01:17:19.794Z,8.14
2019-05-29T01:19:48.345Z,7.97
2019-05-29T01:22:16.774Z,7.76
2019-05-29T01:24:45.186Z,7.66
2019-05-29T01:27:15.085Z,7.59
2019-05-29T01:29:43.718Z,7.49
2019-05-29T01:32:15.505Z,7.39
2019-05-29T01:34:43.981Z,7.36
2019-05-29T01:37:12.438Z,7.35
2019-05-29T01:39:41.249Z,7.20
2019-05-29T01:42:09.675Z,7.25
2019-05-29T01:44:38.208Z,7.12
2019-05-29T01:47:06.623Z,7.07
2019-05-29T01:49:35.233Z,7.00
2019-05-29T01:52:03.586Z,7.09
2019-05-29T01:54:32.028Z,7.08
2019-05-29T01:57:00.516Z,7.12
2019-05-29T01:59:29.005Z,7.14
2019-05-29T02:01:57.422Z,7.09
2019-05-29T02:04:25.859Z,6.99
2019-05-29T02:06:54.288Z,7.01
2019-05-29T02:09:22.717Z,6.90
2019-05-29T02:11:51.140Z,6.88
2019-05-29T02:14:20.835Z,6.97
2019-05-29T02:16:49.182Z,6.87
2019-05-29T02:19:17.807Z,6.83
2019-05-29T02:21:47.724Z,6.86
2019-05-29T02:24:17.016Z,6.71
2019-05-29T02:26:45.509Z,6.75
2019-05-29T02:29:13.949Z,6.83
2019-05-29T02:31:42.479Z,6.72
2019-05-29T02:34:10.877Z,6.75
2019-05-29T02:36:39.340Z,6.57
2019-05-29T02:39:08.252Z,6.65
2019-05-29T02:41:38.708Z,6.60
2019-05-29T02:44:06.859Z,6.69
2019-05-29T02:46:35.315Z,6.74
2019-05-29T02:49:03.752Z,6.76
2019-05-29T02:51:32.173Z,6.76
2019-05-29T02:54:00.635Z,6.73
2019-05-29T02:56:29.609Z,6.69
2019-05-29T02:58:59.253Z,6.58
2019-05-29T03:01:28.298Z,6.60
2019-05-29T03:03:58.034Z,6.54
2019-05-29T03:06:30.270Z,6.51
2019-05-29T03:08:58.792Z,6.51
2019-05-29T03:11:29.185Z,6.40
2019-05-29T03:13:57.449Z,6.34
2019-05-29T03:16:26.697Z,6.45
2019-05-29T03:18:56.043Z,6.44
2019-05-29T03:21:26.099Z,6.31
2019-05-29T03:23:54.611Z,6.31
2019-05-29T03:26:25.240Z,6.40
2019-05-29T03:28:53.251Z,6.46
2019-05-29T03:31:21.744Z,6.46
2019-05-29T03:33:51.179Z,6.45
2019-05-29T03:36:20.011Z,6.45
2019-05-29T03:38:48.512Z,6.51
2019-05-29T03:41:16.898Z,6.52
2019-05-29T03:43:45.300Z,6.60
2019-05-29T03:46:30.205Z,6.54
2019-05-29T03:48:44.327Z,6.62
2019-05-29T03:51:12.858Z,6.64
2019-05-29T03:53:41.288Z,6.65
2019-05-29T03:56:09.714Z,6.62
2019-05-29T03:58:38.140Z,6.58
2019-05-29T04:01:06.614Z,6.56
2019-05-29T04:03:36.081Z,6.60
2019-05-29T04:06:07.263Z,6.55
2019-05-29T04:08:37.617Z,6.54
2019-05-29T04:11:05.965Z,6.46
2019-05-29T04:13:36.003Z,6.65
2019-05-29T04:16:04.693Z,6.51
2019-05-29T04:18:35.832Z,6.63
2019-05-29T04:21:04.603Z,6.55
2019-05-29T04:23:36.282Z,6.55
2019-05-29T04:26:05.006Z,6.66
2019-05-29T04:28:34.850Z,6.66
2019-05-29T04:31:03.803Z,6.80
2019-05-29T04:33:34.930Z,6.93
2019-05-29T04:36:06.987Z,7.09
2019-05-29T04:38:36.212Z,7.19
2019-05-29T04:41:05.691Z,7.24
2019-05-29T04:43:35.424Z,7.39
2019-05-29T04:46:04.461Z,7.44
2019-05-29T04:48:34.063Z,7.54
2019-05-29T04:51:05.462Z,7.56
2019-05-29T04:53:33.614Z,7.57
2019-05-29T04:56:02.790Z,7.70
2019-05-29T04:58:31.246Z,7.64
2019-05-29T05:00:59.801Z,7.79
2019-05-29T05:03:30.992Z,7.85
2019-05-29T05:05:59.623Z,7.96
2019-05-29T05:08:29.154Z,8.16
2019-05-29T05:10:57.904Z,8.17
2019-05-29T05:13:29.380Z,8.16
2019-05-29T05:16:01.728Z,7.93
2019-05-29T05:18:30.173Z,8.05
2019-05-29T05:20:59.811Z,8.24
2019-05-29T05:23:28.281Z,8.42
2019-05-29T05:25:56.841Z,8.29
2019-05-29T05:28:25.424Z,8.31
2019-05-29T05:30:55.312Z,8.46
2019-05-29T05:33:23.793Z,8.57
2019-05-29T05:35:52.220Z,8.61
2019-05-29T05:38:20.676Z,8.61
2019-05-29T05:40:50.735Z,8.37
2019-05-29T05:43:24.020Z,8.53
2019-05-29T05:45:49.360Z,8.67
2019-05-29T05:48:17.920Z,8.74
2019-05-29T05:50:46.394Z,8.76
2019-05-29T05:53:14.844Z,8.92
2019-05-29T05:55:43.266Z,8.95
2019-05-29T05:58:11.720Z,8.97
2019-05-29T06:00:40.188Z,8.96
2019-05-29T06:03:08.593Z,9.03
2019-05-29T06:05:38.232Z,9.07
2019-05-29T06:08:06.801Z,9.19
2019-05-29T06:10:38.102Z,9.16
2019-05-29T06:13:06.723Z,9.14
2019-05-29T06:15:36.410Z,9.23
2019-05-29T06:18:20.035Z,9.57
2019-05-29T06:20:35.142Z,9.83
2019-05-29T06:23:03.662Z,9.54
2019-05-29T06:25:33.905Z,9.77
2019-05-29T06:28:02.261Z,9.83
2019-05-29T06:30:30.696Z,9.92
2019-05-29T06:32:59.099Z,9.93
2019-05-29T06:35:27.633Z,9.99
2019-05-29T06:37:56.062Z,10.19
2019-05-29T06:40:40.162Z,10.55
2019-05-29T06:43:23.756Z,10.65
2019-05-29T06:45:52.769Z,10.50
2019-05-29T06:48:41.286Z,10.88
2019-05-29T06:50:57.580Z,10.48
2019-05-29T06:53:27.067Z,10.64
2019-05-29T06:55:56.850Z,10.83
2019-05-29T06:58:25.737Z,10.77
2019-05-29T07:00:54.169Z,11.00
2019-05-29T07:03:22.735Z,11.04
2019-05-29T07:05:52.862Z,11.21
2019-05-29T07:08:37.674Z,11.19
2019-05-29T07:10:53.205Z,11.25
2019-05-29T07:13:21.724Z,11.33
2019-05-29T07:15:50.114Z,11.39
2019-05-29T07:18:18.655Z,11.26
2019-05-29T07:20:47.119Z,11.42
2019-05-29T07:23:15.576Z,11.70
2019-05-29T07:25:45.452Z,11.71
2019-05-29T07:28:14.256Z,11.68
2019-05-29T07:30:48.359Z,11.75
2019-05-29T07:33:13.041Z,11.94
2019-05-29T07:35:43.593Z,12.15
2019-05-29T07:38:12.105Z,12.28
2019-05-29T07:40:42.420Z,12.20
2019-05-29T07:43:11.216Z,12.18
2019-05-29T07:45:40.586Z,11.84
2019-05-29T07:48:09.382Z,12.16
2019-05-29T07:50:40.082Z,12.34
2019-05-29T07:53:08.055Z,12.54
2019-05-29T07:55:36.464Z,12.57
2019-05-29T07:58:04.874Z,12.55
2019-05-29T08:00:35.697Z,12.55
2019-05-29T08:03:03.422Z,12.57
2019-05-29T08:05:31.864Z,12.66
2019-05-29T08:08:00.281Z,13.16
2019-05-29T08:10:28.702Z,12.88
2019-05-29T08:12:57.232Z,12.93
2019-05-29T08:15:25.667Z,13.29
2019-05-29T08:17:54.974Z,13.26
2019-05-29T08:20:23.414Z,13.86
2019-05-29T08:22:51.910Z,13.68
2019-05-29T08:25:20.375Z,13.87
2019-05-29T08:27:52.219Z,13.26
2019-05-29T08:30:19.379Z,13.21
2019-05-29T08:32:49.110Z,13.31
2019-05-29T08:35:17.891Z,13.66
2019-05-29T08:37:47.014Z,13.94
2019-05-29T08:40:15.852Z,14.34
2019-05-29T08:42:45.225Z,14.46
2019-05-29T08:45:15.805Z,14.61
2019-05-29T08:47:45.855Z,14.84
2019-05-29T08:50:18.951Z,14.86
2019-05-29T08:52:47.979Z,14.98
2019-05-29T08:55:16.910Z,15.69
2019-05-29T08:57:46.338Z,16.06
2019-05-29T09:00:16.841Z,15.56
2019-05-29T09:02:46.501Z,15.93
2019-05-29T09:05:18.404Z,15.51
2019-05-29T09:07:48.356Z,15.44
2019-05-29T09:10:18.018Z,16.00
2019-05-29T09:12:54.894Z,15.89
2019-05-29T09:15:21.342Z,15.89
2019-05-29T09:17:48.482Z,15.92
2019-05-29T09:20:32.132Z,15.40
2019-05-29T09:22:47.339Z,15.42
2019-05-29T09:25:18.976Z,15.31
2019-05-29T09:27:49.228Z,15.42
2019-05-29T09:30:19.686Z,16.00
2019-05-29T09:32:50.895Z,15.54
2019-05-29T09:35:22.041Z,15.35
2019-05-29T09:37:51.547Z,15.25
2019-05-29T09:40:21.101Z,15.84
2019-05-29T09:42:49.684Z,15.35
2019-05-29T09:45:19.526Z,16.17
2019-05-29T09:47:48.195Z,16.35
2019-05-29T09:50:18.681Z,16.64
2019-05-29T09:52:50.481Z,16.81
2019-05-29T09:55:20.585Z,16.60
2019-05-29T09:57:49.016Z,15.97
2019-05-29T10:00:17.967Z,16.13
2019-05-29T10:02:47.236Z,16.23
2019-05-29T10:05:15.742Z,16.63
2019-05-29T10:07:44.181Z,16.76
2019-05-29T10:10:15.865Z,16.63
2019-05-29T10:12:44.313Z,16.27
2019-05-29T10:15:14.945Z,16.07
2019-05-29T10:17:43.426Z,15.64
2019-05-29T10:20:14.190Z,15.71
2019-05-29T10:22:42.669Z,15.34
2019-05-29T10:25:12.761Z,15.64
2019-05-29T10:27:41.218Z,16.31
2019-05-29T10:30:10.119Z,16.61
2019-05-29T10:32:39.052Z,16.77
2019-05-29T10:35:08.073Z,17.13
2019-05-29T10:37:36.505Z,16.97
2019-05-29T10:40:10.013Z,16.84
2019-05-29T10:42:38.512Z,16.72
2019-05-29T10:45:11.628Z,16.01
2019-05-29T10:47:40.059Z,15.92
2019-05-29T10:50:10.512Z,15.64
2019-05-29T10:52:39.070Z,15.54
2019-05-29T10:55:08.545Z,15.86
2019-05-29T10:57:37.033Z,15.61
2019-05-29T11:00:08.492Z,15.51
2019-05-29T11:02:38.421Z,15.68
2019-05-29T11:05:06.906Z,15.20
2019-05-29T11:07:39.978Z,15.17
2019-05-29T11:10:13.340Z,15.21
2019-05-29T11:12:40.035Z,15.06
2019-05-29T11:15:20.866Z,16.39
2019-05-29T11:17:40.800Z,17.21
2019-05-29T11:20:26.253Z,17.40
2019-05-29T11:22:47.559Z,17.41
2019-05-29T11:25:22.384Z,17.48
2019-05-29T11:27:46.612Z,16.52
2019-05-29T11:30:15.633Z,16.62
2019-05-29T11:32:47.295Z,16.24
2019-05-29T11:35:16.085Z,16.53
2019-05-29T11:37:44.510Z,15.98
2019-05-29T11:40:13.348Z,16.17
2019-05-29T11:42:41.772Z,16.38
2019-05-29T11:45:11.536Z,15.84
2019-05-29T11:47:39.978Z,16.39
2019-05-29T11:50:19.523Z,17.40
2019-05-29T11:52:45.040Z,17.61
2019-05-29T11:55:16.844Z,17.79
2019-05-29T11:57:47.435Z,17.56
2019-05-29T12:00:20.195Z,18.88
2019-05-29T12:02:49.133Z,19.01
2019-05-29T12:05:17.995Z,19.46
2019-05-29T12:07:46.429Z,19.48
2019-05-29T12:10:15.576Z,18.91
2019-05-29T12:12:44.027Z,19.16
2019-05-29T12:15:17.194Z,19.04
2019-05-29T12:17:44.551Z,17.72
2019-05-29T12:20:27.183Z,16.95
2019-05-29T12:23:07.043Z,16.65
2019-05-29T12:25:14.151Z,16.05
2019-05-29T12:27:42.585Z,16.67
2019-05-29T12:30:12.547Z,16.61
2019-05-29T12:32:41.003Z,16.65
2019-05-29T12:35:09.966Z,16.60
2019-05-29T12:37:38.476Z,17.86
2019-05-29T12:40:08.613Z,19.85
2019-05-29T12:42:37.006Z,20.46
2019-05-29T12:45:09.430Z,20.98
2019-05-29T12:47:37.932Z,20.67
2019-05-29T12:50:14.477Z,21.99
2019-05-29T12:52:42.912Z,21.29
2019-05-29T12:55:13.253Z,20.99
2019-05-29T12:57:42.466Z,20.92
2019-05-29T13:00:12.752Z,20.82
2019-05-29T13:02:43.528Z,21.25
2019-05-29T13:05:20.226Z,21.89
2019-05-29T13:07:45.793Z,24.40
2019-05-29T13:10:29.372Z,24.77
2019-05-29T13:12:45.558Z,24.49
2019-05-29T13:15:16.416Z,22.66
2019-05-29T13:17:45.579Z,23.15
2019-05-29T13:20:21.715Z,22.64
2019-05-29T13:22:47.416Z,21.78
2019-05-29T13:25:16.229Z,20.19
2019-05-29T13:27:44.639Z,18.77
2019-05-29T13:30:14.389Z,19.40
2019-05-29T13:32:43.251Z,18.70
2019-05-29T13:35:12.071Z,18.01
2019-05-29T13:37:40.494Z,17.32
2019-05-29T13:40:11.251Z,17.24
2019-05-29T13:42:39.907Z,16.61
2019-05-29T13:45:17.941Z,16.73
2019-05-29T13:47:40.156Z,17.34
2019-05-29T13:50:12.135Z,17.35
2019-05-29T13:52:38.728Z,17.24
2019-05-29T13:55:07.946Z,17.68
2019-05-29T13:57:39.573Z,17.63
2019-05-29T14:00:30.292Z,17.80
2019-05-29T14:02:39.524Z,17.95
2019-05-29T14:05:08.804Z,17.99
2019-05-29T14:07:38.191Z,17.86
2019-05-29T14:10:09.707Z,18.34
2019-05-29T14:12:41.366Z,18.15
2019-05-29T14:15:12.426Z,18.20
2019-05-29T14:17:42.565Z,18.21
2019-05-29T14:20:11.369Z,17.75
2019-05-29T14:22:39.784Z,17.54
2019-05-29T14:25:11.536Z,17.19
2019-05-29T14:27:41.637Z,17.76
2019-05-29T14:30:14.021Z,18.17
2019-05-29T14:32:43.703Z,18.12
2019-05-29T14:35:13.388Z,17.94
2019-05-29T14:37:41.940Z,18.06
2019-05-29T14:40:12.064Z,18.04
2019-05-29T14:42:42.326Z,18.09
2019-05-29T14:45:12.586Z,18.10
2019-05-29T14:47:41.075Z,18.05
2019-05-29T14:50:13.239Z,18.41
2019-05-29T14:52:41.708Z,18.48
2019-05-29T14:55:16.155Z,18.28
2019-05-29T14:57:40.585Z,18.76
2019-05-29T15:00:22.843Z,18.59
2019-05-29T15:02:43.212Z,18.56
2019-05-29T15:05:12.865Z,18.67
2019-05-29T15:07:42.343Z,18.06
2019-05-29T15:10:26.258Z,18.17
2019-05-29T15:12:42.975Z,18.27
2019-05-29T15:15:17.857Z,18.15
2019-05-29T15:17:42.521Z,18.17
2019-05-29T15:20:12.570Z,18.03
2019-05-29T15:22:41.438Z,17.99
2019-05-29T15:25:21.824Z,17.96
2019-05-29T15:27:43.772Z,17.79
2019-05-29T15:30:22.088Z,17.72
2019-05-29T15:32:45.383Z,17.83
2019-05-29T15:35:18.454Z,17.62
2019-05-29T15:37:45.258Z,17.54
2019-05-29T15:40:14.983Z,17.53
2019-05-29T15:42:43.490Z,17.73
2019-05-29T15:45:14.139Z,17.50
2019-05-29T15:47:43.401Z,17.32
2019-05-29T15:50:13.604Z,17.70
2019-05-29T15:52:42.996Z,17.96
2019-05-29T15:55:29.492Z,17.89
2019-05-29T15:57:43.343Z,17.70
2019-05-29T16:00:13.766Z,17.66
2019-05-29T16:02:42.273Z,17.74
2019-05-29T16:05:15.416Z,17.65
2019-05-29T16:07:43.950Z,17.55
2019-05-29T16:10:16.884Z,17.84
2019-05-29T16:12:44.692Z,17.60
2019-05-29T16:15:13.495Z,17.60
2019-05-29T16:17:42.002Z,17.68
2019-05-29T16:20:12.314Z,17.90
2019-05-29T16:22:40.984Z,17.89
2019-05-29T16:25:10.794Z,17.73
2019-05-29T16:27:39.451Z,17.52
2019-05-29T16:30:13.692Z,17.64
2019-05-29T16:32:42.171Z,17.45
2019-05-29T16:35:11.189Z,17.41
2019-05-29T16:37:39.547Z,17.37
2019-05-29T16:40:14.148Z,17.37
2019-05-29T16:42:42.784Z,17.23
2019-05-29T16:45:12.586Z,17.23
2019-05-29T16:47:40.996Z,17.16
2019-05-29T16:50:12.827Z,17.09
2019-05-29T16:52:41.464Z,17.40
2019-05-29T16:55:10.945Z,17.41
2019-05-29T16:57:39.396Z,17.17
2019-05-29T17:00:13.663Z,17.50
2019-05-29T17:02:45.162Z,17.54
2019-05-29T17:05:13.978Z,17.35
2019-05-29T17:07:42.350Z,17.52
2019-05-29T17:10:11.105Z,17.36
2019-05-29T17:12:39.528Z,17.52
2019-05-29T17:15:10.295Z,17.53
2019-05-29T17:17:37.983Z,17.65
2019-05-29T17:20:08.253Z,17.60
2019-05-29T17:22:36.800Z,17.22
2019-05-29T17:25:07.197Z,17.05
2019-05-29T17:27:36.596Z,17.14
2019-05-29T17:30:09.533Z,17.16
2019-05-29T17:32:37.968Z,17.06
2019-05-29T17:35:08.594Z,17.15
2019-05-29T17:37:37.352Z,17.07
2019-05-29T17:40:07.919Z,17.01
2019-05-29T17:42:36.389Z,16.98
2019-05-29T17:45:07.813Z,16.93
2019-05-29T17:47:36.358Z,16.98
2019-05-29T17:50:11.353Z,16.95
2019-05-29T17:52:39.887Z,16.86
2019-05-29T17:55:09.496Z,16.75
2019-05-29T17:57:37.902Z,16.82
2019-05-29T18:00:13.574Z,16.73
2019-05-29T18:02:51.987Z,16.66
2019-05-29T18:05:13.525Z,16.76
2019-05-29T18:07:42.042Z,16.64
2019-05-29T18:10:11.899Z,16.63
2019-05-29T18:12:40.431Z,16.69
2019-05-29T18:15:10.296Z,16.62
2019-05-29T18:17:38.822Z,16.54
2019-05-29T18:20:08.129Z,16.58
2019-05-29T18:22:36.549Z,16.49
2019-05-29T18:25:09.001Z,16.41
2019-05-29T18:27:37.442Z,16.31
2019-05-29T18:30:08.449Z,16.32
2019-05-29T18:32:37.500Z,16.31
2019-05-29T18:35:07.816Z,16.24
2019-05-29T18:37:36.360Z,16.17
2019-05-29T18:40:12.297Z,16.14
2019-05-29T18:42:38.382Z,16.11
2019-05-29T18:45:19.613Z,16.07
2019-05-29T18:47:39.574Z,15.99
2019-05-29T18:50:10.483Z,15.92
2019-05-29T18:52:39.973Z,15.93
2019-05-29T18:55:08.974Z,15.84
2019-05-29T18:57:37.427Z,15.71
2019-05-29T19:00:07.744Z,15.69
2019-05-29T19:02:36.177Z,15.60
2019-05-29T19:05:08.058Z,15.53
2019-05-29T19:07:36.450Z,15.45
2019-05-29T19:10:07.306Z,15.45
2019-05-29T19:12:35.075Z,15.23
2019-05-29T19:15:04.805Z,15.22
2019-05-29T19:17:33.203Z,15.12
2019-05-29T19:20:03.417Z,15.07
2019-05-29T19:22:32.695Z,15.05
2019-05-29T19:25:01.375Z,14.92
2019-05-29T19:27:37.450Z,14.85
2019-05-29T19:30:00.024Z,14.78
2019-05-29T19:32:29.310Z,14.73
2019-05-29T19:34:57.943Z,14.68
2019-05-29T19:37:26.377Z,14.64
2019-05-29T19:39:54.851Z,14.56
2019-05-29T19:42:24.053Z,14.47
2019-05-29T19:44:52.648Z,14.46
2019-05-29T19:47:21.155Z,14.39
2019-05-29T19:49:49.651Z,14.35
2019-05-29T19:52:18.171Z,14.28
2019-05-29T19:54:46.663Z,14.25
2019-05-29T19:57:15.122Z,14.32
2019-05-29T19:59:43.739Z,14.31
2019-05-29T20:02:12.207Z,14.22
2019-05-29T20:04:42.170Z,14.21
2019-05-29T20:07:10.618Z,14.17
2019-05-29T20:09:39.098Z,14.11
2019-05-29T20:12:07.601Z,14.14
2019-05-29T20:14:40.898Z,14.09
2019-05-29T20:17:09.078Z,14.09
2019-05-29T20:19:40.780Z,14.05
2019-05-29T20:22:07.748Z,14.01
2019-05-29T20:24:36.910Z,14.06
2019-05-29T20:27:06.747Z,13.92
2019-05-29T20:29:36.369Z,13.88
2019-05-29T20:32:05.057Z,13.90
2019-05-29T20:34:34.645Z,13.90
2019-05-29T20:37:03.204Z,13.83
2019-05-29T20:39:32.856Z,13.70
2019-05-29T20:42:01.518Z,13.74
2019-05-29T20:44:32.620Z,13.75
2019-05-29T20:47:00.183Z,13.74
2019-05-29T20:49:28.666Z,13.76
2019-05-29T20:51:57.175Z,13.75
2019-05-29T20:54:27.646Z,13.72
2019-05-29T20:56:59.424Z,13.64
2019-05-29T20:59:29.525Z,13.64
2019-05-29T21:02:00.367Z,13.60
2019-05-29T21:04:28.434Z,13.61
2019-05-29T21:06:56.965Z,13.53
2019-05-29T21:09:25.507Z,13.47
2019-05-29T21:11:55.433Z,13.50
2019-05-29T21:14:23.917Z,13.49
2019-05-29T21:16:52.330Z,13.39
2019-05-29T21:19:20.786Z,13.37
2019-05-29T21:21:49.203Z,13.35
2019-05-29T21:24:17.623Z,13.34
2019-05-29T21:26:46.041Z,13.31
2019-05-29T21:29:14.459Z,13.27
2019-05-29T21:31:43.715Z,13.26
2019-05-29T21:34:13.762Z,13.21
2019-05-29T21:36:42.429Z,13.15
2019-05-29T21:39:10.974Z,13.18
2019-05-29T21:41:40.425Z,13.03
2019-05-29T21:44:09.163Z,13.05
2019-05-29T21:46:38.826Z,12.94
2019-05-29T21:49:07.557Z,12.95
2019-05-29T21:51:37.292Z,12.88
2019-05-29T21:54:06.062Z,12.80
2019-05-29T21:56:37.443Z,12.74
2019-05-29T21:59:06.226Z,12.70
2019-05-29T22:01:35.080Z,12.66
2019-05-29T22:04:03.626Z,12.69
2019-05-29T22:06:33.708Z,12.64
2019-05-29T22:09:02.198Z,12.61
2019-05-29T22:11:30.679Z,12.56
2019-05-29T22:13:59.143Z,12.59
2019-05-29T22:16:27.723Z,12.55
2019-05-29T22:18:57.029Z,12.55
2019-05-29T22:21:26.415Z,12.57
2019-05-29T22:23:57.103Z,12.52
2019-05-29T22:26:27.794Z,12.52
2019-05-29T22:28:58.584Z,12.59
2019-05-29T22:31:26.541Z,12.59
2019-05-29T22:33:59.607Z,12.59
2019-05-29T22:36:28.091Z,12.52
2019-05-29T22:38:57.474Z,12.48
2019-05-29T22:41:25.984Z,12.45
2019-05-29T22:43:55.982Z,12.46
2019-05-29T22:46:24.492Z,12.45
2019-05-29T22:48:53.690Z,12.35
2019-05-29T22:51:23.707Z,12.37
2019-05-29T22:53:52.767Z,12.34
2019-05-29T22:56:22.489Z,12.38
2019-05-29T22:58:52.033Z,12.34
2019-05-29T23:01:20.579Z,12.33
2019-05-29T23:03:49.122Z,12.40
2019-05-29T23:06:19.472Z,12.37
2019-05-29T23:08:47.940Z,12.32
2019-05-29T23:11:16.504Z,12.35
2019-05-29T23:13:45.031Z,12.37
2019-05-29T23:16:13.508Z,12.35
2019-05-29T23:18:41.971Z,12.29
2019-05-29T23:21:10.552Z,12.28
2019-05-29T23:23:39.061Z,12.31
2019-05-29T23:26:07.586Z,12.22
2019-05-29T23:28:36.096Z,12.29
2019-05-29T23:31:05.104Z,12.37
2019-05-29T23:33:33.649Z,12.33
2019-05-29T23:36:03.249Z,12.29
2019-05-29T23:38:31.814Z,12.28
2019-05-29T23:41:01.548Z,12.26
2019-05-29T23:43:32.630Z,12.29
2019-05-29T23:46:02.414Z,12.25
2019-05-29T23:48:32.919Z,12.24
2019-05-29T23:51:03.839Z,12.23
2019-05-29T23:53:32.332Z,12.19
2019-05-29T23:56:01.838Z,12.16
2019-05-29T23:58:30.474Z,12.16
